Time,TemperatureF,DewpointF,PressureIn,WindDirection,WindDirectionDegrees,WindSpeedMPH,WindSpeedGustMPH,Humidity,HourlyPrecipIn,Conditions,Clouds,dailyrainin,SoftwareType,DateUTC
2013-03-13 00:00:00,46.8,32.8,30.21,WNW,298,3.0,10.0,58,0.00,,---,0.00,VWS V14.01,2013-03-13 06:00:00,
2013-03-13 00:05:00,47.1,33.1,30.21,North,5,8.0,9.0,58,0.00,,---,0.00,VWS V14.01,2013-03-13 06:05:00,
2013-03-13 00:10:00,47.3,32.8,30.22,NW,323,4.0,11.0,57,0.00,,---,0.00,VWS V14.01,2013-03-13 06:10:00,
2013-03-13 00:15:00,47.3,32.8,30.22,WNW,300,5.0,11.0,57,0.00,,---,0.00,VWS V14.01,2013-03-13 06:15:00,
2013-03-13 00:20:00,47.2,32.3,30.22,NW,315,4.0,15.0,56,0.00,,---,0.00,VWS V14.01,2013-03-13 06:20:00,
2013-03-13 00:25:00,47.1,32.2,30.22,NW,307,7.0,15.0,56,0.00,,---,0.00,VWS V14.01,2013-03-13 06:25:00,
2013-03-13 00:30:00,47.2,32.3,30.22,NW,317,9.0,15.0,56,0.00,,---,0.00,VWS V14.01,2013-03-13 06:30:00,
2013-03-13 00:35:00,47.1,31.8,30.22,NW,319,2.0,4.0,55,0.00,,---,0.00,VWS V14.01,2013-03-13 06:35:00,
2013-03-13 00:40:00,47.0,31.7,30.23,NW,312,4.0,10.0,55,0.00,,---,0.00,VWS V14.01,2013-03-13 06:40:00,
2013-03-13 00:45:00,46.9,31.6,30.23,WNW,286,4.0,10.0,55,0.00,,---,0.00,VWS V14.01,2013-03-13 06:45:00,
2013-03-13 00:50:00,46.7,31.4,30.23,WNW,300,5.0,10.0,55,0.00,,---,0.00,VWS V14.01,2013-03-13 06:50:00,
2013-03-13 00:55:00,46.5,31.2,30.23,NW,317,7.0,10.0,55,0.00,,---,0.00,VWS V14.01,2013-03-13 06:55:00,
2013-03-13 01:00:00,46.4,31.1,30.23,NW,309,4.0,10.0,55,0.00,,---,0.00,VWS V14.01,2013-03-13 07:00:00,
2013-03-13 01:05:00,46.3,30.6,30.23,NW,309,3.0,3.0,54,0.00,,---,0.00,VWS V14.01,2013-03-13 07:05:00,
2013-03-13 01:10:00,46.2,30.5,30.23,NW,313,4.0,9.0,54,0.00,,---,0.00,VWS V14.01,2013-03-13 07:10:00,
2013-03-13 01:15:00,46.0,30.8,30.23,NW,321,2.0,9.0,55,0.00,,---,0.00,VWS V14.01,2013-03-13 07:15:00,
2013-03-13 01:20:00,45.8,30.6,30.24,NW,308,4.0,9.0,55,0.00,,---,0.00,VWS V14.01,2013-03-13 07:20:00,
2013-03-13 01:25:00,45.5,30.7,30.24,NNW,329,1.0,9.0,56,0.00,,---,0.00,VWS V14.01,2013-03-13 07:25:00,
2013-03-13 01:30:00,45.4,30.2,30.24,NNW,346,7.0,10.0,55,0.00,,---,0.00,VWS V14.01,2013-03-13 07:30:00,
2013-03-13 01:35:00,45.4,30.6,30.24,North,349,5.0,7.0,56,0.00,,---,0.00,VWS V14.01,2013-03-13 07:35:00,
2013-03-13 01:40:00,45.3,30.5,30.24,NW,325,10.0,16.0,56,0.00,,---,0.00,VWS V14.01,2013-03-13 07:40:00,
2013-03-13 01:45:00,45.2,30.9,30.25,NW,304,6.0,16.0,57,0.00,,---,0.00,VWS V14.01,2013-03-13 07:45:00,
2013-03-13 01:50:00,45.0,31.1,30.25,NNW,338,5.0,16.0,58,0.00,,---,0.00,VWS V14.01,2013-03-13 07:50:00,
2013-03-13 01:55:00,44.7,30.9,30.25,North,355,8.0,16.0,58,0.00,,---,0.00,VWS V14.01,2013-03-13 07:55:00,
2013-03-13 02:00:00,44.3,30.9,30.25,NW,320,6.0,16.0,59,0.00,,---,0.00,VWS V14.01,2013-03-13 08:00:00,
2013-03-13 02:05:00,44.0,30.6,30.24,NE,34,6.0,6.0,59,0.00,,---,0.00,VWS V14.01,2013-03-13 08:05:00,
2013-03-13 02:10:00,43.7,30.3,30.25,NW,325,6.0,13.0,59,0.00,,---,0.00,VWS V14.01,2013-03-13 08:10:00,
2013-03-13 02:15:00,43.5,30.1,30.25,NW,324,8.0,13.0,59,0.00,,---,0.00,VWS V14.01,2013-03-13 08:15:00,
2013-03-13 04:49:00,38.9,26.6,30.29,NW,313,3.0,3.0,61,0.00,,---,0.00,VWS V14.01,2013-03-13 10:49:00,
2013-03-13 04:54:00,38.7,26.8,30.29,NW,321,3.0,6.0,62,0.00,,---,0.00,VWS V14.01,2013-03-13 10:54:00,
2013-03-13 04:59:00,38.4,26.5,30.29,WNW,303,4.0,6.0,62,0.00,,---,0.00,VWS V14.01,2013-03-13 10:59:00,
2013-03-13 05:04:00,38.3,26.4,30.29,WNW,286,2.0,6.0,62,0.00,,---,0.00,VWS V14.01,2013-03-13 11:04:00,
2013-03-13 05:09:00,38.2,26.7,30.30,NNW,340,7.0,9.0,63,0.00,,---,0.00,VWS V14.01,2013-03-13 11:09:00,
2013-03-13 05:14:00,38.3,26.4,30.30,NW,319,2.0,9.0,62,0.00,,---,0.00,VWS V14.01,2013-03-13 11:14:00,
2013-03-13 05:19:00,38.3,26.4,30.30,NW,323,5.0,9.0,62,0.00,,---,0.00,VWS V14.01,2013-03-13 11:19:00,
2013-03-13 05:24:00,38.3,26.4,30.30,WNW,302,3.0,9.0,62,0.00,,---,0.00,VWS V14.01,2013-03-13 11:24:00,
2013-03-13 05:29:00,38.2,26.7,30.30,NW,317,3.0,9.0,63,0.00,,---,0.00,VWS V14.01,2013-03-13 11:29:00,
2013-03-13 05:34:00,38.2,26.7,30.30,WNW,302,4.0,9.0,63,0.00,,---,0.00,VWS V14.01,2013-03-13 11:34:00,
2013-03-13 05:39:00,38.2,26.7,30.30,NW,325,9.0,9.0,63,0.00,,---,0.00,VWS V14.01,2013-03-13 11:39:00,
2013-03-13 05:44:00,38.2,26.7,30.31,NW,321,4.0,9.0,63,0.00,,---,0.00,VWS V14.01,2013-03-13 11:44:00,
2013-03-13 05:49:00,38.3,26.8,30.31,NW,306,2.0,9.0,63,0.00,,---,0.00,VWS V14.01,2013-03-13 11:49:00,
2013-03-13 05:54:00,38.2,26.7,30.31,NNW,333,2.0,9.0,63,0.00,,---,0.00,VWS V14.01,2013-03-13 11:54:00,
2013-03-13 05:59:00,38.2,26.7,30.31,NW,313,5.0,11.0,63,0.00,,---,0.00,VWS V14.01,2013-03-13 11:59:00,
2013-03-13 06:04:00,38.1,27.0,30.32,NW,315,2.0,11.0,64,0.00,,---,0.00,VWS V14.01,2013-03-13 12:04:00,
2013-03-13 06:09:00,38.0,26.9,30.32,WNW,303,3.0,3.0,64,0.00,,---,0.00,VWS V14.01,2013-03-13 12:09:00,
2013-03-13 06:14:00,37.9,27.2,30.32,NW,304,1.0,5.0,65,0.00,,---,0.00,VWS V14.01,2013-03-13 12:14:00,
2013-03-13 06:19:00,37.7,27.4,30.32,WNW,291,2.0,5.0,66,0.00,,---,0.00,VWS V14.01,2013-03-13 12:19:00,
2013-03-13 06:24:00,37.5,27.2,30.32,WNW,289,1.0,5.0,66,0.00,,---,0.00,VWS V14.01,2013-03-13 12:24:00,
2013-03-13 06:29:00,37.3,27.4,30.32,NW,304,5.0,7.0,67,0.00,,---,0.00,VWS V14.01,2013-03-13 12:29:00,
2013-03-13 06:34:00,37.3,27.4,30.32,NW,309,2.0,7.0,67,0.00,,---,0.00,VWS V14.01,2013-03-13 12:34:00,
2013-03-13 06:39:00,37.5,27.2,30.33,NW,307,5.0,9.0,66,0.00,,---,0.00,VWS V14.01,2013-03-13 12:39:00,
2013-03-13 06:44:00,37.6,27.3,30.33,WNW,302,3.0,9.0,66,0.00,,---,0.00,VWS V14.01,2013-03-13 12:44:00,
2013-03-13 06:49:00,37.7,27.4,30.33,NW,321,0.0,9.0,66,0.00,,---,0.00,VWS V14.01,2013-03-13 12:49:00,
2013-03-13 06:54:00,38.0,28.0,30.33,WNW,283,4.0,9.0,67,0.00,,---,0.00,VWS V14.01,2013-03-13 12:54:00,
2013-03-13 06:59:00,38.4,28.0,30.33,WNW,285,5.0,9.0,66,0.00,,---,0.00,VWS V14.01,2013-03-13 12:59:00,
2013-03-13 07:04:00,38.8,28.1,30.33,WNW,290,8.0,11.0,65,0.00,,---,0.00,VWS V14.01,2013-03-13 13:04:00,
2013-03-13 07:09:00,39.1,28.0,30.34,NW,318,5.0,9.0,64,0.00,,---,0.00,VWS V14.01,2013-03-13 13:09:00,
2013-03-13 07:14:00,39.4,28.2,30.34,NW,315,7.0,11.0,64,0.00,,---,0.00,VWS V14.01,2013-03-13 13:14:00,
2013-03-13 07:19:00,39.8,28.2,30.34,NW,304,3.0,11.0,63,0.00,,---,0.00,VWS V14.01,2013-03-13 13:19:00,
2013-03-13 07:24:00,40.2,28.6,30.34,NW,315,3.0,11.0,63,0.00,,---,0.00,VWS V14.01,2013-03-13 13:24:00,
2013-03-13 07:29:00,40.4,28.0,30.34,WNW,301,6.0,11.0,61,0.00,,---,0.00,VWS V14.01,2013-03-13 13:29:00,
2013-03-13 07:34:00,40.6,27.8,30.35,North,355,3.0,11.0,60,0.00,,---,0.00,VWS V14.01,2013-03-13 13:34:00,
2013-03-13 07:39:00,40.8,27.6,30.35,NW,315,5.0,12.0,59,0.00,,---,0.00,VWS V14.01,2013-03-13 13:39:00,
2013-03-13 07:44:00,40.9,27.7,30.35,NW,324,4.0,12.0,59,0.00,,---,0.00,VWS V14.01,2013-03-13 13:44:00,
2013-03-13 07:49:00,41.3,28.1,30.35,NW,308,7.0,12.0,59,0.00,,---,0.00,VWS V14.01,2013-03-13 13:49:00,
2013-03-13 07:54:00,41.3,27.6,30.36,NNW,336,7.0,12.0,58,0.00,,---,0.00,VWS V14.01,2013-03-13 13:54:00,
2013-03-13 07:59:00,41.1,26.6,30.36,WNW,292,8.0,16.0,56,0.00,,---,0.00,VWS V14.01,2013-03-13 13:59:00,
2013-03-13 08:04:00,41.5,27.4,30.36,NNW,331,4.0,17.0,57,0.00,,---,0.00,VWS V14.01,2013-03-13 14:04:00,
2013-03-13 08:09:00,42.0,27.0,30.36,North,351,6.0,13.0,55,0.00,,---,0.00,VWS V14.01,2013-03-13 14:09:00,
2013-03-13 08:14:00,42.1,27.1,30.36,WNW,295,10.0,14.0,55,0.00,,---,0.00,VWS V14.01,2013-03-13 14:14:00,
2013-03-13 08:19:00,42.0,26.1,30.37,NW,323,5.0,14.0,53,0.00,,---,0.00,VWS V14.01,2013-03-13 14:19:00,
2013-03-13 08:24:00,41.9,26.5,30.37,NNE,17,7.0,16.0,54,0.00,,---,0.00,VWS V14.01,2013-03-13 14:24:00,
2013-03-13 08:29:00,42.1,26.7,30.37,NW,319,13.0,18.0,54,0.00,,---,0.00,VWS V14.01,2013-03-13 14:29:00,
2013-03-13 08:34:00,42.2,27.2,30.37,NNW,333,4.0,18.0,55,0.00,,---,0.00,VWS V14.01,2013-03-13 14:34:00,
2013-03-13 08:39:00,42.8,27.3,30.38,NW,313,8.0,16.0,54,0.00,,---,0.00,VWS V14.01,2013-03-13 14:39:00,
2013-03-13 08:44:00,42.9,27.0,30.38,NNW,327,10.0,16.0,53,0.00,,---,0.00,VWS V14.01,2013-03-13 14:44:00,
2013-03-13 08:49:00,42.8,26.9,30.38,NNW,344,7.0,17.0,53,0.00,,---,0.00,VWS V14.01,2013-03-13 14:49:00,
2013-03-13 08:54:00,42.8,26.9,30.38,NW,312,13.0,18.0,53,0.00,,---,0.00,VWS V14.01,2013-03-13 14:54:00,
2013-03-13 08:59:00,42.9,27.0,30.38,WNW,291,7.0,18.0,53,0.00,,---,0.00,VWS V14.01,2013-03-13 14:59:00,
2013-03-13 09:04:00,43.3,27.3,30.39,NW,315,13.0,18.0,53,0.00,,---,0.00,VWS V14.01,2013-03-13 15:04:00,
2013-03-13 09:09:00,43.4,27.0,30.39,NNW,340,10.0,16.0,52,0.00,,---,0.00,VWS V14.01,2013-03-13 15:09:00,
2013-03-13 09:14:00,43.8,27.8,30.39,North,9,10.0,16.0,53,0.00,,---,0.00,VWS V14.01,2013-03-13 15:14:00,
2013-03-13 09:19:00,44.3,27.3,30.39,North,355,10.0,16.0,51,0.00,,---,0.00,VWS V14.01,2013-03-13 15:19:00,
2013-03-13 09:24:00,44.0,27.5,30.39,NW,325,3.0,16.0,52,0.00,,---,0.00,VWS V14.01,2013-03-13 15:24:00,
2013-03-13 09:29:00,44.1,27.1,30.39,WNW,293,8.0,16.0,51,0.00,,---,0.00,VWS V14.01,2013-03-13 15:29:00,
2013-03-13 09:34:00,44.4,27.4,30.39,NW,325,12.0,16.0,51,0.00,,---,0.00,VWS V14.01,2013-03-13 15:34:00,
2013-03-13 09:39:00,44.0,25.6,30.39,NW,319,9.0,12.0,48,0.00,,---,0.00,VWS V14.01,2013-03-13 15:39:00,
2013-03-13 09:44:00,43.8,26.4,30.39,NW,319,7.0,17.0,50,0.00,,---,0.00,VWS V14.01,2013-03-13 15:44:00,
2013-03-13 09:49:00,44.2,26.8,30.39,NNW,329,9.0,17.0,50,0.00,,---,0.00,VWS V14.01,2013-03-13 15:49:00,
2013-03-13 09:54:00,44.5,26.5,30.39,NW,314,5.0,17.0,49,0.00,,---,0.00,VWS V14.01,2013-03-13 15:54:00,
2013-03-13 09:59:00,45.3,27.3,30.39,NNE,25,5.0,17.0,49,0.00,,---,0.00,VWS V14.01,2013-03-13 15:59:00,
2013-03-13 10:04:00,45.8,27.2,30.40,NNW,346,13.0,17.0,48,0.00,,---,0.00,VWS V14.01,2013-03-13 16:04:00,
2013-03-13 10:09:00,45.5,27.5,30.40,NNW,339,3.0,12.0,49,0.00,,---,0.00,VWS V14.01,2013-03-13 16:09:00,
2013-03-13 10:14:00,46.1,28.0,30.39,NNW,344,5.0,12.0,49,0.00,,---,0.00,VWS V14.01,2013-03-13 16:14:00,
2013-03-13 10:19:00,46.2,28.1,30.39,NW,325,5.0,13.0,49,0.00,,---,0.00,VWS V14.01,2013-03-13 16:19:00,
2013-03-13 10:24:00,46.4,27.8,30.39,NNW,346,7.0,13.0,48,0.00,,---,0.00,VWS V14.01,2013-03-13 16:24:00,
2013-03-13 10:29:00,46.4,27.8,30.40,NNE,30,4.0,15.0,48,0.00,,---,0.00,VWS V14.01,2013-03-13 16:29:00,
2013-03-13 10:34:00,46.3,27.7,30.39,NW,315,10.0,15.0,48,0.00,,---,0.00,VWS V14.01,2013-03-13 16:34:00,
2013-03-13 10:39:00,46.3,28.2,30.39,NNW,331,3.0,12.0,49,0.00,,---,0.00,VWS V14.01,2013-03-13 16:39:00,
2013-03-13 10:44:00,46.8,28.2,30.40,North,350,11.0,12.0,48,0.00,,---,0.00,VWS V14.01,2013-03-13 16:44:00,
2013-03-13 10:49:00,46.9,27.2,30.40,NNW,329,12.0,18.0,46,0.00,,---,0.00,VWS V14.01,2013-03-13 16:49:00,
2013-03-13 10:54:00,46.6,27.5,30.40,NNE,28,6.0,18.0,47,0.00,,---,0.00,VWS V14.01,2013-03-13 16:54:00,
2013-03-13 10:59:00,46.6,26.9,30.40,NNW,340,8.0,18.0,46,0.00,,---,0.00,VWS V14.01,2013-03-13 16:59:00,
2013-03-13 11:04:00,46.8,27.6,30.40,NNW,332,12.0,18.0,47,0.00,,---,0.00,VWS V14.01,2013-03-13 17:04:00,
2013-03-13 11:09:00,47.4,27.7,30.40,NW,325,10.0,12.0,46,0.00,,---,0.00,VWS V14.01,2013-03-13 17:09:00,
2013-03-13 11:14:00,47.4,28.7,30.40,WNW,299,8.0,12.0,48,0.00,,---,0.00,VWS V14.01,2013-03-13 17:14:00,
2013-03-13 11:19:00,48.0,28.2,30.40,North,355,7.0,13.0,46,0.00,,---,0.00,VWS V14.01,2013-03-13 17:19:00,
2013-03-13 11:24:00,48.2,27.9,30.40,NNW,338,6.0,13.0,45,0.00,,---,0.00,VWS V14.01,2013-03-13 17:24:00,
2013-03-13 11:29:00,48.4,27.0,30.39,NW,317,8.0,14.0,43,0.00,,---,0.00,VWS V14.01,2013-03-13 17:29:00,
2013-03-13 11:34:00,48.3,26.9,30.39,WNW,299,6.0,14.0,43,0.00,,---,0.00,VWS V14.01,2013-03-13 17:34:00,
2013-03-13 11:39:00,48.1,27.2,30.39,NW,306,5.0,10.0,44,0.00,,---,0.00,VWS V14.01,2013-03-13 17:39:00,
2013-03-13 11:44:00,47.9,27.0,30.39,NW,311,4.0,13.0,44,0.00,,---,0.00,VWS V14.01,2013-03-13 17:44:00,
2013-03-13 11:49:00,48.4,28.6,30.39,NNW,341,12.0,13.0,46,0.00,,---,0.00,VWS V14.01,2013-03-13 17:49:00,
2013-03-13 11:54:00,48.3,28.0,30.39,NW,309,11.0,14.0,45,0.00,,---,0.00,VWS V14.01,2013-03-13 17:54:00,
2013-03-13 11:59:00,48.6,28.2,30.39,West,277,12.0,14.0,45,0.00,,---,0.00,VWS V14.01,2013-03-13 17:59:00,
2013-03-13 12:04:00,49.5,29.1,30.39,NW,309,8.0,16.0,45,0.00,,---,0.00,VWS V14.01,2013-03-13 18:04:00,
2013-03-13 12:09:00,49.6,27.5,30.39,NW,325,2.0,13.0,42,0.00,,---,0.00,VWS V14.01,2013-03-13 18:09:00,
2013-03-13 12:14:00,48.8,27.3,30.39,NNW,339,8.0,13.0,43,0.00,,---,0.00,VWS V14.01,2013-03-13 18:14:00,
2013-03-13 12:19:00,49.3,26.0,30.39,North,351,13.0,17.0,40,0.00,,---,0.00,VWS V14.01,2013-03-13 18:19:00,
2013-03-13 12:24:00,49.1,25.8,30.39,North,355,9.0,17.0,40,0.00,,---,0.00,VWS V14.01,2013-03-13 18:24:00,
2013-03-13 12:29:00,48.8,26.2,30.38,NNW,340,9.0,17.0,41,0.00,,---,0.00,VWS V14.01,2013-03-13 18:29:00,
2013-03-13 12:34:00,49.1,27.6,30.38,NNW,341,6.0,17.0,43,0.00,,---,0.00,VWS V14.01,2013-03-13 18:34:00,
2013-03-13 12:39:00,49.7,27.0,30.38,North,351,13.0,15.0,41,0.00,,---,0.00,VWS V14.01,2013-03-13 18:39:00,
2013-03-13 12:44:00,49.7,27.0,30.38,WNW,295,7.0,15.0,41,0.00,,---,0.00,VWS V14.01,2013-03-13 18:44:00,
2013-03-13 12:49:00,49.7,27.6,30.38,North,355,6.0,15.0,42,0.00,,---,0.00,VWS V14.01,2013-03-13 18:49:00,
2013-03-13 12:54:00,50.1,29.0,30.38,WNW,301,2.0,15.0,44,0.00,,---,0.00,VWS V14.01,2013-03-13 18:54:00,
2013-03-13 12:59:00,50.6,29.0,30.38,NW,316,9.0,15.0,43,0.00,,---,0.00,VWS V14.01,2013-03-13 18:59:00,
2013-03-13 13:04:00,50.6,29.0,30.38,WNW,291,8.0,15.0,43,0.00,,---,0.00,VWS V14.01,2013-03-13 19:04:00,
2013-03-13 13:09:00,50.8,28.5,30.37,NW,320,8.0,13.0,42,0.00,,---,0.00,VWS V14.01,2013-03-13 19:09:00,
2013-03-13 13:14:00,50.6,28.4,30.37,NW,317,4.0,22.0,42,0.00,,---,0.00,VWS V14.01,2013-03-13 19:14:00,
2013-03-13 13:19:00,51.2,29.5,30.37,WNW,293,4.0,22.0,43,0.00,,---,0.00,VWS V14.01,2013-03-13 19:19:00,
2013-03-13 13:24:00,51.8,28.3,30.37,NW,325,11.0,22.0,40,0.00,,---,0.00,VWS V14.01,2013-03-13 19:24:00,
2013-03-13 13:29:00,51.8,28.3,30.37,NW,308,6.0,22.0,40,0.00,,---,0.00,VWS V14.01,2013-03-13 19:29:00,
2013-03-13 13:34:00,51.8,27.6,30.37,NW,313,7.0,22.0,39,0.00,,---,0.00,VWS V14.01,2013-03-13 19:34:00,
2013-03-13 13:39:00,51.4,27.3,30.37,NNW,348,6.0,15.0,39,0.00,,---,0.00,VWS V14.01,2013-03-13 19:39:00,
2013-03-13 13:44:00,51.8,28.3,30.37,North,350,10.0,15.0,40,0.00,,---,0.00,VWS V14.01,2013-03-13 19:44:00,
2013-03-13 13:49:00,51.6,29.3,30.37,NNW,345,11.0,15.0,42,0.00,,---,0.00,VWS V14.01,2013-03-13 19:49:00,
2013-03-13 13:54:00,51.8,28.3,30.37,NW,315,4.0,15.0,40,0.00,,---,0.00,VWS V14.01,2013-03-13 19:54:00,
2013-03-13 13:59:00,51.1,28.8,30.38,NW,313,13.0,15.0,42,0.00,,---,0.00,VWS V14.01,2013-03-13 19:59:00,
2013-03-13 14:04:00,51.2,28.9,30.37,North,11,8.0,18.0,42,0.00,,---,0.00,VWS V14.01,2013-03-13 20:04:00,
2013-03-13 14:09:00,51.2,28.9,30.37,NNW,347,11.0,17.0,42,0.00,,---,0.00,VWS V14.01,2013-03-13 20:09:00,
2013-03-13 14:14:00,51.1,28.2,30.37,NNW,348,6.0,17.0,41,0.00,,---,0.00,VWS V14.01,2013-03-13 20:14:00,
2013-03-13 14:19:00,50.9,28.6,30.37,North,349,4.0,17.0,42,0.00,,---,0.00,VWS V14.01,2013-03-13 20:19:00,
2013-03-13 14:24:00,51.1,28.8,30.38,NNW,348,9.0,17.0,42,0.00,,---,0.00,VWS V14.01,2013-03-13 20:24:00,
2013-03-13 14:29:00,51.7,29.4,30.38,NNW,329,11.0,17.0,42,0.00,,---,0.00,VWS V14.01,2013-03-13 20:29:00,
2013-03-13 14:34:00,51.6,29.3,30.38,NW,317,13.0,17.0,42,0.00,,---,0.00,VWS V14.01,2013-03-13 20:34:00,
2013-03-13 14:39:00,51.3,29.0,30.38,NNE,24,2.0,9.0,42,0.00,,---,0.00,VWS V14.01,2013-03-13 20:39:00,
2013-03-13 14:44:00,51.2,28.9,30.38,NW,304,5.0,11.0,42,0.00,,---,0.00,VWS V14.01,2013-03-13 20:44:00,
2013-03-13 14:49:00,51.4,29.1,30.38,North,360,10.0,12.0,42,0.00,,---,0.00,VWS V14.01,2013-03-13 20:49:00,
2013-03-13 14:54:00,51.3,28.4,30.38,North,360,9.0,13.0,41,0.00,,---,0.00,VWS V14.01,2013-03-13 20:54:00,
2013-03-13 14:59:00,51.6,29.3,30.38,NNW,331,10.0,13.0,42,0.00,,---,0.00,VWS V14.01,2013-03-13 20:59:00,
2013-03-13 15:04:00,51.7,28.8,30.37,North,5,6.0,15.0,41,0.00,,---,0.00,VWS V14.01,2013-03-13 21:04:00,
2013-03-13 15:09:00,52.2,29.8,30.38,NNE,13,11.0,11.0,42,0.00,,---,0.00,VWS V14.01,2013-03-13 21:09:00,
2013-03-13 15:14:00,52.2,28.6,30.37,North,360,6.0,11.0,40,0.00,,---,0.00,VWS V14.01,2013-03-13 21:14:00,
2013-03-13 15:19:00,51.9,29.0,30.37,WNW,302,11.0,12.0,41,0.00,,---,0.00,VWS V14.01,2013-03-13 21:19:00,
2013-03-13 15:24:00,51.5,28.6,30.37,North,355,2.0,13.0,41,0.00,,---,0.00,VWS V14.01,2013-03-13 21:24:00,
2013-03-13 15:29:00,51.7,28.8,30.37,NW,325,4.0,13.0,41,0.00,,---,0.00,VWS V14.01,2013-03-13 21:29:00,
2013-03-13 15:34:00,51.8,28.3,30.37,NNW,345,7.0,13.0,40,0.00,,---,0.00,VWS V14.01,2013-03-13 21:34:00,
2013-03-13 15:39:00,51.6,28.1,30.37,NNW,346,9.0,11.0,40,0.00,,---,0.00,VWS V14.01,2013-03-13 21:39:00,
2013-03-13 15:44:00,51.4,28.5,30.37,NNW,335,7.0,11.0,41,0.00,,---,0.00,VWS V14.01,2013-03-13 21:44:00,
2013-03-13 15:49:00,51.2,27.1,30.37,NW,304,6.0,13.0,39,0.00,,---,0.00,VWS V14.01,2013-03-13 21:49:00,
2013-03-13 15:54:00,51.0,27.5,30.37,NNW,348,10.0,13.0,40,0.00,,---,0.00,VWS V14.01,2013-03-13 21:54:00,
2013-03-13 15:59:00,50.9,28.1,30.37,North,5,8.0,13.0,41,0.00,,---,0.00,VWS V14.01,2013-03-13 21:59:00,
2013-03-13 16:04:00,51.0,28.1,30.36,NNE,17,4.0,13.0,41,0.00,,---,0.00,VWS V14.01,2013-03-13 22:04:00,
2013-03-13 16:09:00,51.0,27.5,30.37,WNW,297,4.0,10.0,40,0.00,,---,0.00,VWS V14.01,2013-03-13 22:09:00,
2013-03-13 16:14:00,51.1,27.6,30.37,NW,317,3.0,12.0,40,0.00,,---,0.00,VWS V14.01,2013-03-13 22:14:00,
2013-03-13 16:19:00,51.0,27.5,30.37,NNW,344,8.0,12.0,40,0.00,,---,0.00,VWS V14.01,2013-03-13 22:19:00,
2013-03-13 16:24:00,50.9,26.8,30.37,North,349,5.0,12.0,39,0.00,,---,0.00,VWS V14.01,2013-03-13 22:24:00,
2013-03-13 16:29:00,50.8,27.4,30.37,NNW,331,7.0,12.0,40,0.00,,---,0.00,VWS V14.01,2013-03-13 22:29:00,
2013-03-13 16:34:00,50.8,28.0,30.37,NW,324,7.0,12.0,41,0.00,,---,0.00,VWS V14.01,2013-03-13 22:34:00,
2013-03-13 16:39:00,50.7,27.3,30.37,NNW,343,2.0,13.0,40,0.00,,---,0.00,VWS V14.01,2013-03-13 22:39:00,
2013-03-13 16:44:00,50.6,27.8,30.37,NNW,335,7.0,13.0,41,0.00,,---,0.00,VWS V14.01,2013-03-13 22:44:00,
2013-03-13 16:49:00,50.4,27.6,30.37,North,360,5.0,13.0,41,0.00,,---,0.00,VWS V14.01,2013-03-13 22:49:00,
2013-03-13 16:54:00,50.6,28.4,30.37,NNE,13,7.0,13.0,42,0.00,,---,0.00,VWS V14.01,2013-03-13 22:54:00,
2013-03-13 16:59:00,50.7,26.7,30.37,NW,319,3.0,14.0,39,0.00,,---,0.00,VWS V14.01,2013-03-13 22:59:00,
2013-03-13 17:04:00,50.3,26.3,30.37,NW,311,5.0,14.0,39,0.00,,---,0.00,VWS V14.01,2013-03-13 23:04:00,
2013-03-13 17:09:00,50.2,26.2,30.37,NNW,334,3.0,14.0,39,0.00,,---,0.00,VWS V14.01,2013-03-13 23:09:00,
2013-03-13 17:14:00,50.0,26.0,30.37,NW,326,9.0,14.0,39,0.00,,---,0.00,VWS V14.01,2013-03-13 23:14:00,
2013-03-13 17:19:00,49.6,26.3,30.37,NW,309,7.0,14.0,40,0.00,,---,0.00,VWS V14.01,2013-03-13 23:19:00,
2013-03-13 17:24:00,49.3,26.0,30.37,NW,318,3.0,14.0,40,0.00,,---,0.00,VWS V14.01,2013-03-13 23:24:00,
2013-03-13 17:29:00,49.2,26.5,30.36,NNW,329,6.0,14.0,41,0.00,,---,0.00,VWS V14.01,2013-03-13 23:29:00,
2013-03-13 17:34:00,49.0,26.3,30.36,NE,44,4.0,14.0,41,0.00,,---,0.00,VWS V14.01,2013-03-13 23:34:00,
2013-03-13 17:39:00,48.6,26.0,30.36,NNW,336,6.0,9.0,41,0.00,,---,0.00,VWS V14.01,2013-03-13 23:39:00,
2013-03-13 17:44:00,48.3,26.3,30.36,North,355,7.0,9.0,42,0.00,,---,0.00,VWS V14.01,2013-03-13 23:44:00,
2013-03-13 17:49:00,48.1,26.1,30.36,NNW,337,1.0,9.0,42,0.00,,---,0.00,VWS V14.01,2013-03-13 23:49:00,
2013-03-13 17:54:00,47.8,26.4,30.36,North,360,4.0,9.0,43,0.00,,---,0.00,VWS V14.01,2013-03-13 23:54:00,
2013-03-13 17:59:00,47.4,26.0,30.36,NNW,348,3.0,9.0,43,0.00,,---,0.00,VWS V14.01,2013-03-13 23:59:00,
2013-03-13 18:04:00,47.1,26.3,30.36,North,360,2.0,9.0,44,0.00,,---,0.00,VWS V14.01,2013-03-14 00:04:00,
2013-03-13 18:09:00,46.7,26.0,30.36,NNW,348,0.0,4.0,44,0.00,,---,0.00,VWS V14.01,2013-03-14 00:09:00,
2013-03-13 18:14:00,46.3,25.6,30.36,North,355,2.0,4.0,44,0.00,,---,0.00,VWS V14.01,2013-03-14 00:14:00,
2013-03-13 18:19:00,46.0,25.9,30.36,North,355,0.0,4.0,45,0.00,,---,0.00,VWS V14.01,2013-03-14 00:19:00,
2013-03-13 18:24:00,45.7,25.6,30.36,North,355,0.0,4.0,45,0.00,,---,0.00,VWS V14.01,2013-03-14 00:24:00,
2013-03-13 18:29:00,45.4,25.9,30.37,North,350,0.0,4.0,46,0.00,,---,0.00,VWS V14.01,2013-03-14 00:29:00,
2013-03-13 18:34:00,45.2,26.2,30.37,North,350,0.0,4.0,47,0.00,,---,0.00,VWS V14.01,2013-03-14 00:34:00,
2013-03-13 18:39:00,44.9,25.9,30.37,North,350,0.0,0.0,47,0.00,,---,0.00,VWS V14.01,2013-03-14 00:39:00,
2013-03-13 18:44:00,44.6,26.1,30.37,North,350,0.0,0.0,48,0.00,,---,0.00,VWS V14.01,2013-03-14 00:44:00,
2013-03-13 18:49:00,44.4,26.0,30.37,North,350,0.0,0.0,48,0.00,,---,0.00,VWS V14.01,2013-03-14 00:49:00,
2013-03-13 18:54:00,44.0,26.1,30.37,North,350,0.0,1.0,49,0.00,,---,0.00,VWS V14.01,2013-03-14 00:54:00,
2013-03-13 18:59:00,43.7,26.3,30.37,North,350,0.0,1.0,50,0.00,,---,0.00,VWS V14.01,2013-03-14 00:59:00,
2013-03-13 19:04:00,43.3,25.9,30.37,North,350,0.0,1.0,50,0.00,,---,0.00,VWS V14.01,2013-03-14 01:04:00,
2013-03-13 19:09:00,42.9,27.0,30.37,North,350,0.0,0.0,53,0.00,,---,0.00,VWS V14.01,2013-03-14 01:09:00,
2013-03-13 19:14:00,42.6,28.0,30.37,North,350,0.0,0.0,56,0.00,,---,0.00,VWS V14.01,2013-03-14 01:14:00,
2013-03-13 19:19:00,42.2,28.9,30.37,North,350,0.0,0.0,59,0.00,,---,0.00,VWS V14.01,2013-03-14 01:19:00,
2013-03-13 19:24:00,41.9,28.6,30.37,North,350,0.0,0.0,59,0.00,,---,0.00,VWS V14.01,2013-03-14 01:24:00,
2013-03-13 19:29:00,41.5,28.7,30.37,North,350,0.0,0.0,60,0.00,,---,0.00,VWS V14.01,2013-03-14 01:29:00,
2013-03-13 19:34:00,41.2,28.4,30.37,North,350,0.0,0.0,60,0.00,,---,0.00,VWS V14.01,2013-03-14 01:34:00,
2013-03-13 19:39:00,40.7,28.3,30.37,North,350,0.0,0.0,61,0.00,,---,0.00,VWS V14.01,2013-03-14 01:39:00,
2013-03-13 19:44:00,40.3,28.3,30.37,North,350,0.0,0.0,62,0.00,,---,0.00,VWS V14.01,2013-03-14 01:44:00,
2013-03-13 19:49:00,40.0,28.4,30.37,North,350,0.0,0.0,63,0.00,,---,0.00,VWS V14.01,2013-03-14 01:49:00,
2013-03-13 19:54:00,39.6,28.4,30.37,North,350,0.0,0.0,64,0.00,,---,0.00,VWS V14.01,2013-03-14 01:54:00,
2013-03-13 19:59:00,39.3,28.2,30.37,North,350,0.0,0.0,64,0.00,,---,0.00,VWS V14.01,2013-03-14 01:59:00,
2013-03-13 20:04:00,39.0,28.2,30.37,North,350,0.0,0.0,65,0.00,,---,0.00,VWS V14.01,2013-03-14 02:04:00,
2013-03-13 20:09:00,38.7,28.7,30.37,North,350,0.0,0.0,67,0.00,,---,0.00,VWS V14.01,2013-03-14 02:09:00,
2013-03-13 20:14:00,38.5,28.1,30.37,North,350,0.0,0.0,66,0.00,,---,0.00,VWS V14.01,2013-03-14 02:14:00,
2013-03-13 20:19:00,38.3,28.3,30.37,North,350,0.0,0.0,67,0.00,,---,0.00,VWS V14.01,2013-03-14 02:19:00,
2013-03-13 20:24:00,38.0,28.4,30.37,North,350,0.0,0.0,68,0.00,,---,0.00,VWS V14.01,2013-03-14 02:24:00,
2013-03-13 20:29:00,37.8,28.2,30.37,North,350,0.0,1.0,68,0.00,,---,0.00,VWS V14.01,2013-03-14 02:29:00,
2013-03-13 20:34:00,37.6,28.0,30.37,North,350,0.0,1.0,68,0.00,,---,0.00,VWS V14.01,2013-03-14 02:34:00,
2013-03-13 20:39:00,37.5,27.9,30.37,North,350,0.0,0.0,68,0.00,,---,0.00,VWS V14.01,2013-03-14 02:39:00,
2013-03-13 20:44:00,37.4,28.2,30.37,North,350,0.0,0.0,69,0.00,,---,0.00,VWS V14.01,2013-03-14 02:44:00,
2013-03-13 20:49:00,37.3,28.1,30.37,North,350,0.0,0.0,69,0.00,,---,0.00,VWS V14.01,2013-03-14 02:49:00,
2013-03-13 20:54:00,37.2,28.3,30.37,North,350,0.0,0.0,70,0.00,,---,0.00,VWS V14.01,2013-03-14 02:54:00,
2013-03-13 20:59:00,37.1,28.2,30.38,North,350,0.0,0.0,70,0.00,,---,0.00,VWS V14.01,2013-03-14 02:59:00,
2013-03-13 21:04:00,37.1,28.2,30.38,North,350,0.0,0.0,70,0.00,,---,0.00,VWS V14.01,2013-03-14 03:04:00,
2013-03-13 21:09:00,37.0,28.1,30.38,North,350,0.0,0.0,70,0.00,,---,0.00,VWS V14.01,2013-03-14 03:09:00,
2013-03-13 21:14:00,36.9,28.4,30.38,North,350,0.0,0.0,71,0.00,,---,0.00,VWS V14.01,2013-03-14 03:14:00,
2013-03-13 21:19:00,36.7,28.2,30.38,North,350,0.0,0.0,71,0.00,,---,0.00,VWS V14.01,2013-03-14 03:19:00,
2013-03-13 21:24:00,36.5,28.0,30.38,North,350,0.0,0.0,71,0.00,,---,0.00,VWS V14.01,2013-03-14 03:24:00,
2013-03-13 21:29:00,36.2,28.1,30.39,North,350,0.0,0.0,72,0.00,,---,0.00,VWS V14.01,2013-03-14 03:29:00,
2013-03-13 21:34:00,35.9,28.4,30.39,North,350,0.0,0.0,74,0.00,,---,0.00,VWS V14.01,2013-03-14 03:34:00,
2013-03-13 21:39:00,35.6,28.1,30.39,North,350,0.0,0.0,74,0.00,,---,0.00,VWS V14.01,2013-03-14 03:39:00,
2013-03-13 21:44:00,35.3,28.2,30.39,North,350,0.0,0.0,75,0.00,,---,0.00,VWS V14.01,2013-03-14 03:44:00,
2013-03-13 21:49:00,35.2,28.4,30.39,North,350,0.0,0.0,76,0.00,,---,0.00,VWS V14.01,2013-03-14 03:49:00,
2013-03-13 21:54:00,35.2,28.4,30.39,North,350,0.0,0.0,76,0.00,,---,0.00,VWS V14.01,2013-03-14 03:54:00,
2013-03-13 21:59:00,35.1,28.3,30.39,North,350,0.0,0.0,76,0.00,,---,0.00,VWS V14.01,2013-03-14 03:59:00,
2013-03-13 22:00:00,35.1,28.3,30.39,North,350,0.0,0.0,76,0.00,,---,0.00,VWS V14.01,2013-03-14 04:00:00,
2013-03-13 22:05:00,35.0,28.2,30.39,North,350,0.0,0.0,76,0.00,,---,0.00,VWS V14.01,2013-03-14 04:05:00,
2013-03-13 22:10:00,34.9,28.4,30.39,North,350,0.0,0.0,77,0.00,,---,0.00,VWS V14.01,2013-03-14 04:10:00,
2013-03-13 22:15:00,35.0,28.5,30.39,North,350,0.0,0.0,77,0.00,,---,0.00,VWS V14.01,2013-03-14 04:15:00,
2013-03-13 22:20:00,34.8,28.3,30.40,North,350,0.0,0.0,77,0.00,,---,0.00,VWS V14.01,2013-03-14 04:20:00,
2013-03-13 22:25:00,34.7,28.5,30.39,North,350,0.0,0.0,78,0.00,,---,0.00,VWS V14.01,2013-03-14 04:25:00,
2013-03-13 22:30:00,34.6,28.8,30.40,North,350,0.0,0.0,79,0.00,,---,0.00,VWS V14.01,2013-03-14 04:30:00,
2013-03-13 22:35:00,34.5,28.4,30.39,North,350,0.0,0.0,78,0.00,,---,0.00,VWS V14.01,2013-03-14 04:35:00,
2013-03-13 22:40:00,34.3,28.5,30.39,North,350,0.0,0.0,79,0.00,,---,0.00,VWS V14.01,2013-03-14 04:40:00,
2013-03-13 22:45:00,34.2,28.4,30.39,North,350,0.0,0.0,79,0.00,,---,0.00,VWS V14.01,2013-03-14 04:45:00,
2013-03-13 22:50:00,34.0,28.5,30.39,North,350,0.0,0.0,80,0.00,,---,0.00,VWS V14.01,2013-03-14 04:50:00,
2013-03-13 22:55:00,33.8,28.3,30.39,North,350,0.0,0.0,80,0.00,,---,0.00,VWS V14.01,2013-03-14 04:55:00,
2013-03-13 23:00:00,33.6,28.1,30.39,North,350,0.0,0.0,80,0.00,,---,0.00,VWS V14.01,2013-03-14 05:00:00,
2013-03-13 23:05:00,33.4,28.2,30.39,North,350,0.0,0.0,81,0.00,,---,0.00,VWS V14.01,2013-03-14 05:05:00,
2013-03-13 23:10:00,33.3,28.1,30.39,North,350,0.0,0.0,81,0.00,,---,0.00,VWS V14.01,2013-03-14 05:10:00,
2013-03-13 23:15:00,33.2,28.0,30.39,North,350,0.0,0.0,81,0.00,,---,0.00,VWS V14.01,2013-03-14 05:15:00,
2013-03-13 23:20:00,33.0,27.8,30.40,North,350,0.0,0.0,81,0.00,,---,0.00,VWS V14.01,2013-03-14 05:20:00,
2013-03-13 23:25:00,32.8,27.9,30.40,North,350,0.0,0.0,82,0.00,,---,0.00,VWS V14.01,2013-03-14 05:25:00,
2013-03-13 23:30:00,32.6,27.7,30.40,North,350,0.0,0.0,82,0.00,,---,0.00,VWS V14.01,2013-03-14 05:30:00,
2013-03-13 23:35:00,32.6,27.7,30.40,North,350,0.0,0.0,82,0.00,,---,0.00,VWS V14.01,2013-03-14 05:35:00,
2013-03-13 23:40:00,32.5,27.9,30.40,North,350,0.0,0.0,83,0.00,,---,0.00,VWS V14.01,2013-03-14 05:40:00,
2013-03-13 23:45:00,32.3,27.4,30.40,North,350,0.0,0.0,82,0.00,,---,0.00,VWS V14.01,2013-03-14 05:45:00,
2013-03-13 23:50:00,32.2,27.6,30.40,North,350,0.0,0.0,83,0.00,,---,0.00,VWS V14.01,2013-03-14 05:50:00,
2013-03-13 23:55:00,32.1,27.5,30.40,North,350,0.0,0.0,83,0.00,,---,0.00,VWS V14.01,2013-03-14 05:55:00,